Rachel Borchard — V7AT6 — position and weather

sailwx.info

Track history (hours):
 
Tides and Currents Weather Stations Pressure Air Temp Water Temp Dewpoint Dewpoint Depression Visibility Wind Speed Wind Dir Waves Ship Positions

Rachel Borchard

Last reported at 2018-Feb-19 10:44 UTC. Time now 2018-Feb-19 12:17 UTC.
Position N 40°35' E 014°33'.

Length 157 m; draft 8.4 m.

Type: Ship. MMSI: 538005064.

Date/timePositionNaut miles runAvg speedWind from/ knotsBaromVisibWave heightAir tempDewpointWater temp
2018-Feb-19 10:44N 40°35' E 014°33'51717.0
2018-Feb-18 04:23N 40°26' E 003°13'816.7
2018-Feb-18 03:56N 40°25' E 003°03'1117.5
2018-Feb-18 03:17N 40°22' E 002°49'518.0
2018-Feb-18 03:00N 40°21' E 002°42'140 5.3
2018-Feb-17 00:29N 38°48' E 000°26'915.1
2018-Feb-16 23:52N 38°39' E 000°25'716.6
2018-Feb-16 23:27N 38°33' E 000°20'816.6
2018-Feb-16 22:59N 38°27' E 000°14'2216.1
2018-Feb-16 21:36N 38°08' W 000°01'216.5
2018-Feb-16 21:30N 38°07' W 000°02'816.7
2018-Feb-16 21:00N 37°60' W 000°08'1117.0
2018-Feb-16 20:21N 37°51' W 000°16'717.0
2018-Feb-16 19:57N 37°45' W 000°21'816.9
2018-Feb-16 19:30N 37°39' W 000°27'2117.1
2018-Feb-16 18:18N 37°24' W 000°45'42316.5
2018-Feb-15 16:37N 36°48' W 009°33'217.3
2018-Feb-15 16:30N 36°50' W 009°33'917.6
2018-Feb-15 15:58N 36°59' W 009°36'2917.7
2018-Feb-15 14:21N 37°27' W 009°44'4017.9
2018-Feb-15 12:07N 38°05' W 009°56'218.4
2018-Feb-15 12:00N 38°08' W 009°57'918.2
2018-Feb-15 11:30N 38°16' W 009°60'918.2
2018-Feb-15 11:00N 38°25' W 010°02'918.0
2018-Feb-15 10:30N 38°34' W 010°04'917.9
2018-Feb-15 10:00N 38°43' W 010°06'917.8
2018-Feb-15 09:30N 38°52' W 010°05'917.8
2018-Feb-15 09:00N 39°00' W 010°01'917.7
2018-Feb-15 08:30N 39°08' W 009°56'12217.2
2018-Feb-15 01:25N 40°59' W 008°50'716.7
2018-Feb-15 01:00N 41°05' W 008°46'612.2
2018-Feb-15 00:30N 41°11' W 008°42'0 0.5
2018-Feb-14 23:59N 41°11' W 008°42'0 0.0
2018-Feb-14 23:29N 41°11' W 008°42'0 0.0
2018-Feb-14 22:59N 41°11' W 008°42'0 0.0
2018-Feb-14 22:29N 41°11' W 008°42'0 0.0
2018-Feb-14 21:59N 41°11' W 008°42'0 0.0
2018-Feb-14 21:29N 41°11' W 008°42'0 0.0
2018-Feb-14 20:59N 41°11' W 008°42'0 0.0
2018-Feb-14 20:29N 41°11' W 008°42'0 0.0
2018-Feb-14 19:59N 41°11' W 008°42'0 0.0
2018-Feb-14 19:29N 41°11' W 008°42'0 0.0
2018-Feb-14 18:59N 41°11' W 008°42'0 0.0
2018-Feb-14 18:29N 41°11' W 008°42'0 0.0
2018-Feb-14 17:59N 41°11' W 008°42'0 0.0
2018-Feb-14 17:29N 41°11' W 008°42'0 0.0
2018-Feb-14 16:59N 41°11' W 008°42'0 0.0
2018-Feb-14 16:29N 41°11' W 008°42'0 0.0
2018-Feb-14 16:00N 41°11' W 008°42'2 4.7
2018-Feb-14 15:31N 41°09' W 008°43'4 7.2
2018-Feb-14 15:00N 41°09' W 008°48'1 1.3
2018-Feb-14 14:13N 41°09' W 008°49'0 0.2
2018-Feb-14 14:01N 41°09' W 008°49'65313.2
2018-Feb-12 12:39N 51°51' W 005°55'718.7
2018-Feb-12 12:17N 51°57' W 005°55'518.8
2018-Feb-12 12:01N 52°03' W 005°54'1019.0
2018-Feb-12 11:30N 52°12' W 005°54'918.7
2018-Feb-12 11:00N 52°22' W 005°54'918.5
2018-Feb-12 10:30N 52°31' W 005°54'918.5
2018-Feb-12 10:01N 52°40' W 005°53'918.1
2018-Feb-12 09:30N 52°49' W 005°53'918.0
2018-Feb-12 09:00N 52°58' W 005°54'917.4
2018-Feb-12 08:30N 53°07' W 005°56'917.1
2018-Feb-12 08:00N 53°15' W 006°00'713.2
2018-Feb-12 07:30N 53°20' W 006°07'4 4.6
2018-Feb-12 06:43N 53°21' W 006°13'0 0.0
2018-Feb-12 06:07N 53°21' W 006°13'0 0.0
2018-Feb-12 05:58N 53°21' W 006°13'0 0.0
2018-Feb-12 05:25N 53°21' W 006°13'0 0.0
2018-Feb-12 04:58N 53°21' W 006°13'0 0.0
2018-Feb-12 04:22N 53°21' W 006°13'0 0.0
2018-Feb-12 03:49N 53°21' W 006°13'0 0.0
2018-Feb-12 03:13N 53°21' W 006°13'0 0.0
2018-Feb-12 02:58N 53°21' W 006°13'0 0.0
2018-Feb-12 02:28N 53°21' W 006°13'0 0.0
2018-Feb-12 01:52N 53°21' W 006°13'0 0.0
2018-Feb-12 01:25N 53°21' W 006°13'0 0.0
2018-Feb-12 00:49N 53°21' W 006°13'0 0.0
2018-Feb-12 00:10N 53°21' W 006°13'0 0.1
2018-Feb-11 23:58N 53°21' W 006°13'0 0.0
2018-Feb-11 23:28N 53°21' W 006°13'0 0.0
2018-Feb-11 22:58N 53°21' W 006°13'0 0.0
2018-Feb-11 22:28N 53°21' W 006°13'0 0.0
2018-Feb-11 21:52N 53°21' W 006°13'0 0.0
2018-Feb-11 21:19N 53°21' W 006°13'0 0.0
2018-Feb-11 20:43N 53°21' W 006°13'0 0.0
2018-Feb-11 20:07N 53°21' W 006°13'0 0.0
2018-Feb-11 19:58N 53°21' W 006°13'0 0.0
2018-Feb-11 19:28N 53°21' W 006°13'0 0.0
2018-Feb-11 18:58N 53°21' W 006°13'0 0.0
2018-Feb-11 18:21N 53°21' W 006°13'0 1.0
2018-Feb-11 18:00N 53°21' W 006°12'4 7.8
2018-Feb-11 17:30N 53°20' W 006°06'510.5
2018-Feb-11 17:00N 53°22' W 005°57'3 6.0
2018-Feb-11 16:30N 53°23' W 005°52'612.9
2018-Feb-11 16:00N 53°24' W 005°42'5613.0
2018-Feb-11 11:41N 53°33' W 004°09'413.9
2018-Feb-11 11:24N 53°33' W 004°02'513.8
2018-Feb-11 11:01N 53°33' W 003°53'713.3
2018-Feb-11 10:31N 53°34' W 003°42'713.8
2018-Feb-11 10:00N 53°33' W 003°30'713.3
2018-Feb-11 09:30N 53°32' W 003°19'510.3
2018-Feb-11 09:00N 53°32' W 003°11'511.0
2018-Feb-11 08:30N 53°28' W 003°04'2 3.6
2018-Feb-11 08:00N 53°27' W 003°01'0 0.4
2018-Feb-11 07:30N 53°27' W 003°01'0 0.6
2018-Feb-11 06:47N 53°28' W 003°02'0 0.0
2018-Feb-11 06:29N 53°28' W 003°02'0 0.0
2018-Feb-11 05:59N 53°28' W 003°02'0 0.0
2018-Feb-11 05:29N 53°28' W 003°02'0 0.0
2018-Feb-11 04:59N 53°28' W 003°02'0 0.0
2018-Feb-11 04:26N 53°28' W 003°02'0 0.0
2018-Feb-11 03:59N 53°28' W 003°02'0 0.0
2018-Feb-11 03:20N 53°28' W 003°02'0 0.0
2018-Feb-11 02:59N 53°28' W 003°02'0 0.0
2018-Feb-11 02:23N 53°28' W 003°02'0 0.0
2018-Feb-11 01:59N 53°28' W 003°02'0 0.0
2018-Feb-11 01:28N 53°28' W 003°02'0 0.0
2018-Feb-11 00:58N 53°28' W 003°02'0 0.0
2018-Feb-11 00:29N 53°28' W 003°02'0 0.0
2018-Feb-10 23:59N 53°28' W 003°02'0 0.0
2018-Feb-10 23:29N 53°28' W 003°02'0 0.0
2018-Feb-10 22:59N 53°28' W 003°02'0 0.0
2018-Feb-10 22:29N 53°28' W 003°02'0 0.0
2018-Feb-10 21:59N 53°28' W 003°02'0 0.0
2018-Feb-10 21:29N 53°28' W 003°02'0 0.0
2018-Feb-10 20:59N 53°28' W 003°02'0 0.0
2018-Feb-10 20:26N 53°28' W 003°02'0 0.0
2018-Feb-10 19:56N 53°28' W 003°02'0 0.0
2018-Feb-10 19:29N 53°28' W 003°02'0 0.0
2018-Feb-10 18:59N 53°28' W 003°02'0 0.0
2018-Feb-10 18:23N 53°28' W 003°02'0 0.0
2018-Feb-10 17:59N 53°28' W 003°02'0 0.0
2018-Feb-10 17:26N 53°28' W 003°02'0 0.0
2018-Feb-10 16:59N 53°28' W 003°02'0 0.0
2018-Feb-10 16:29N 53°28' W 003°02'0 0.0
2018-Feb-10 15:59N 53°28' W 003°02'0 0.0
2018-Feb-10 15:29N 53°28' W 003°02'0 0.0
2018-Feb-10 14:56N 53°28' W 003°02'0 0.0
2018-Feb-10 14:29N 53°28' W 003°02'0 0.0
2018-Feb-10 13:59N 53°28' W 003°02'0 0.0
2018-Feb-10 13:23N 53°28' W 003°02'0 0.0
2018-Feb-10 12:56N 53°28' W 003°02'0 0.0
2018-Feb-10 12:29N 53°28' W 003°02'0 0.0
2018-Feb-10 11:59N 53°28' W 003°02'0 0.0
2018-Feb-10 11:29N 53°28' W 003°02'0 0.0
2018-Feb-10 10:59N 53°28' W 003°02'0 0.0
2018-Feb-10 10:29N 53°28' W 003°02'0 0.0
2018-Feb-10 09:59N 53°28' W 003°02'0 0.0
2018-Feb-10 09:26N 53°28' W 003°02'0 0.0
2018-Feb-10 08:56N 53°28' W 003°02'0 0.0
2018-Feb-10 08:23N 53°28' W 003°02'0 0.0
2018-Feb-10 07:59N 53°28' W 003°02'0 0.0
2018-Feb-10 07:26N 53°28' W 003°02'0 0.0
2018-Feb-10 06:59N 53°28' W 003°02'0 0.0
2018-Feb-10 06:29N 53°28' W 003°02'0 0.0
2018-Feb-10 06:00N 53°28' W 003°02'1 1.4
2018-Feb-10 05:31N 53°27' W 003°01'0 0.4
2018-Feb-10 04:59N 53°27' W 003°01'2 4.4
2018-Feb-10 04:30N 53°28' W 003°04'4 7.7
2018-Feb-10 04:00N 53°31' W 003°07'712.9
2018-Feb-10 03:30N 53°31' W 003°18'3 6.1
2018-Feb-10 03:00N 53°31' W 003°23'4 8.3
2018-Feb-10 02:30N 53°31' W 003°30'611.0
2018-Feb-10 02:00N 53°31' W 003°40'611.3
2018-Feb-10 01:30N 53°31' W 003°49'3 1.4
2018-Feb-09 23:09N 53°28' W 003°53'0 0.9
2018-Feb-09 23:01N 53°28' W 003°53'0 0.5
2018-Feb-09 22:46N 53°28' W 003°53'  
Track history (hours):
 
Tides and Currents Weather Stations Pressure Air Temp Water Temp Dewpoint Dewpoint Depression Visibility Wind Speed Wind Dir Waves Ship Positions

Rachel Borchard

Last reported at 2018-Feb-19 10:44 UTC. Time now 2018-Feb-19 12:17 UTC.
Position N 40°35' E 014°33'.

Length 157 m; draft 8.4 m.

Type: Ship. MMSI: 538005064.

Date/timePositionNaut miles runAvg speedWind from/ knotsBaromVisibWave heightAir tempDewpointWater temp
2018-Feb-19 10:44N 40°35' E 014°33'51717.0
2018-Feb-18 04:23N 40°26' E 003°13'816.7
2018-Feb-18 03:56N 40°25' E 003°03'1117.5
2018-Feb-18 03:17N 40°22' E 002°49'518.0
2018-Feb-18 03:00N 40°21' E 002°42'140 5.3
2018-Feb-17 00:29N 38°48' E 000°26'915.1
2018-Feb-16 23:52N 38°39' E 000°25'716.6
2018-Feb-16 23:27N 38°33' E 000°20'816.6
2018-Feb-16 22:59N 38°27' E 000°14'2216.1
2018-Feb-16 21:36N 38°08' W 000°01'216.5
2018-Feb-16 21:30N 38°07' W 000°02'816.7
2018-Feb-16 21:00N 37°60' W 000°08'1117.0
2018-Feb-16 20:21N 37°51' W 000°16'717.0
2018-Feb-16 19:57N 37°45' W 000°21'816.9
2018-Feb-16 19:30N 37°39' W 000°27'2117.1
2018-Feb-16 18:18N 37°24' W 000°45'42316.5
2018-Feb-15 16:37N 36°48' W 009°33'217.3
2018-Feb-15 16:30N 36°50' W 009°33'917.6
2018-Feb-15 15:58N 36°59' W 009°36'2917.7
2018-Feb-15 14:21N 37°27' W 009°44'4017.9
2018-Feb-15 12:07N 38°05' W 009°56'218.4
2018-Feb-15 12:00N 38°08' W 009°57'918.2
2018-Feb-15 11:30N 38°16' W 009°60'918.2
2018-Feb-15 11:00N 38°25' W 010°02'918.0
2018-Feb-15 10:30N 38°34' W 010°04'917.9
2018-Feb-15 10:00N 38°43' W 010°06'917.8
2018-Feb-15 09:30N 38°52' W 010°05'917.8
2018-Feb-15 09:00N 39°00' W 010°01'917.7
2018-Feb-15 08:30N 39°08' W 009°56'12217.2
2018-Feb-15 01:25N 40°59' W 008°50'716.7
2018-Feb-15 01:00N 41°05' W 008°46'612.2
2018-Feb-15 00:30N 41°11' W 008°42'0 0.5
2018-Feb-14 23:59N 41°11' W 008°42'0 0.0
2018-Feb-14 23:29N 41°11' W 008°42'0 0.0
2018-Feb-14 22:59N 41°11' W 008°42'0 0.0
2018-Feb-14 22:29N 41°11' W 008°42'0 0.0
2018-Feb-14 21:59N 41°11' W 008°42'0 0.0
2018-Feb-14 21:29N 41°11' W 008°42'0 0.0
2018-Feb-14 20:59N 41°11' W 008°42'0 0.0
2018-Feb-14 20:29N 41°11' W 008°42'0 0.0
2018-Feb-14 19:59N 41°11' W 008°42'0 0.0
2018-Feb-14 19:29N 41°11' W 008°42'0 0.0
2018-Feb-14 18:59N 41°11' W 008°42'0 0.0
2018-Feb-14 18:29N 41°11' W 008°42'0 0.0
2018-Feb-14 17:59N 41°11' W 008°42'0 0.0
2018-Feb-14 17:29N 41°11' W 008°42'0 0.0
2018-Feb-14 16:59N 41°11' W 008°42'0 0.0
2018-Feb-14 16:29N 41°11' W 008°42'0 0.0
2018-Feb-14 16:00N 41°11' W 008°42'2 4.7
2018-Feb-14 15:31N 41°09' W 008°43'4 7.2
2018-Feb-14 15:00N 41°09' W 008°48'1 1.3
2018-Feb-14 14:13N 41°09' W 008°49'0 0.2
2018-Feb-14 14:01N 41°09' W 008°49'65313.2
2018-Feb-12 12:39N 51°51' W 005°55'718.7
2018-Feb-12 12:17N 51°57' W 005°55'518.8
2018-Feb-12 12:01N 52°03' W 005°54'1019.0
2018-Feb-12 11:30N 52°12' W 005°54'918.7
2018-Feb-12 11:00N 52°22' W 005°54'918.5
2018-Feb-12 10:30N 52°31' W 005°54'918.5
2018-Feb-12 10:01N 52°40' W 005°53'918.1
2018-Feb-12 09:30N 52°49' W 005°53'918.0
2018-Feb-12 09:00N 52°58' W 005°54'917.4
2018-Feb-12 08:30N 53°07' W 005°56'917.1
2018-Feb-12 08:00N 53°15' W 006°00'713.2
2018-Feb-12 07:30N 53°20' W 006°07'4 4.6
2018-Feb-12 06:43N 53°21' W 006°13'0 0.0
2018-Feb-12 06:07N 53°21' W 006°13'0 0.0
2018-Feb-12 05:58N 53°21' W 006°13'0 0.0
2018-Feb-12 05:25N 53°21' W 006°13'0 0.0
2018-Feb-12 04:58N 53°21' W 006°13'0 0.0
2018-Feb-12 04:22N 53°21' W 006°13'0 0.0
2018-Feb-12 03:49N 53°21' W 006°13'0 0.0
2018-Feb-12 03:13N 53°21' W 006°13'0 0.0
2018-Feb-12 02:58N 53°21' W 006°13'0 0.0
2018-Feb-12 02:28N 53°21' W 006°13'0 0.0
2018-Feb-12 01:52N 53°21' W 006°13'0 0.0
2018-Feb-12 01:25N 53°21' W 006°13'0 0.0
2018-Feb-12 00:49N 53°21' W 006°13'0 0.0
2018-Feb-12 00:10N 53°21' W 006°13'0 0.1
2018-Feb-11 23:58N 53°21' W 006°13'0 0.0
2018-Feb-11 23:28N 53°21' W 006°13'0 0.0
2018-Feb-11 22:58N 53°21' W 006°13'0 0.0
2018-Feb-11 22:28N 53°21' W 006°13'0 0.0
2018-Feb-11 21:52N 53°21' W 006°13'0 0.0
2018-Feb-11 21:19N 53°21' W 006°13'0 0.0
2018-Feb-11 20:43N 53°21' W 006°13'0 0.0
2018-Feb-11 20:07N 53°21' W 006°13'0 0.0
2018-Feb-11 19:58N 53°21' W 006°13'0 0.0
2018-Feb-11 19:28N 53°21' W 006°13'0 0.0
2018-Feb-11 18:58N 53°21' W 006°13'0 0.0
2018-Feb-11 18:21N 53°21' W 006°13'0 1.0
2018-Feb-11 18:00N 53°21' W 006°12'4 7.8
2018-Feb-11 17:30N 53°20' W 006°06'510.5
2018-Feb-11 17:00N 53°22' W 005°57'3 6.0
2018-Feb-11 16:30N 53°23' W 005°52'612.9
2018-Feb-11 16:00N 53°24' W 005°42'5613.0
2018-Feb-11 11:41N 53°33' W 004°09'413.9
2018-Feb-11 11:24N 53°33' W 004°02'513.8
2018-Feb-11 11:01N 53°33' W 003°53'713.3
2018-Feb-11 10:31N 53°34' W 003°42'713.8
2018-Feb-11 10:00N 53°33' W 003°30'713.3
2018-Feb-11 09:30N 53°32' W 003°19'510.3
2018-Feb-11 09:00N 53°32' W 003°11'511.0
2018-Feb-11 08:30N 53°28' W 003°04'2 3.6
2018-Feb-11 08:00N 53°27' W 003°01'0 0.4
2018-Feb-11 07:30N 53°27' W 003°01'0 0.6
2018-Feb-11 06:47N 53°28' W 003°02'0 0.0
2018-Feb-11 06:29N 53°28' W 003°02'0 0.0
2018-Feb-11 05:59N 53°28' W 003°02'0 0.0
2018-Feb-11 05:29N 53°28' W 003°02'0 0.0
2018-Feb-11 04:59N 53°28' W 003°02'0 0.0
2018-Feb-11 04:26N 53°28' W 003°02'0 0.0
2018-Feb-11 03:59N 53°28' W 003°02'0 0.0
2018-Feb-11 03:20N 53°28' W 003°02'0 0.0
2018-Feb-11 02:59N 53°28' W 003°02'0 0.0
2018-Feb-11 02:23N 53°28' W 003°02'0 0.0
2018-Feb-11 01:59N 53°28' W 003°02'0 0.0
2018-Feb-11 01:28N 53°28' W 003°02'0 0.0
2018-Feb-11 00:58N 53°28' W 003°02'0 0.0
2018-Feb-11 00:29N 53°28' W 003°02'0 0.0
2018-Feb-10 23:59N 53°28' W 003°02'0 0.0
2018-Feb-10 23:29N 53°28' W 003°02'0 0.0
2018-Feb-10 22:59N 53°28' W 003°02'0 0.0
2018-Feb-10 22:29N 53°28' W 003°02'0 0.0
2018-Feb-10 21:59N 53°28' W 003°02'0 0.0
2018-Feb-10 21:29N 53°28' W 003°02'0 0.0
2018-Feb-10 20:59N 53°28' W 003°02'0 0.0
2018-Feb-10 20:26N 53°28' W 003°02'0 0.0
2018-Feb-10 19:56N 53°28' W 003°02'0 0.0
2018-Feb-10 19:29N 53°28' W 003°02'0 0.0
2018-Feb-10 18:59N 53°28' W 003°02'0 0.0
2018-Feb-10 18:23N 53°28' W 003°02'0 0.0
2018-Feb-10 17:59N 53°28' W 003°02'0 0.0
2018-Feb-10 17:26N 53°28' W 003°02'0 0.0
2018-Feb-10 16:59N 53°28' W 003°02'0 0.0
2018-Feb-10 16:29N 53°28' W 003°02'0 0.0
2018-Feb-10 15:59N 53°28' W 003°02'0 0.0
2018-Feb-10 15:29N 53°28' W 003°02'0 0.0
2018-Feb-10 14:56N 53°28' W 003°02'0 0.0
2018-Feb-10 14:29N 53°28' W 003°02'0 0.0
2018-Feb-10 13:59N 53°28' W 003°02'0 0.0
2018-Feb-10 13:23N 53°28' W 003°02'0 0.0
2018-Feb-10 12:56N 53°28' W 003°02'0 0.0
2018-Feb-10 12:29N 53°28' W 003°02'0 0.0
2018-Feb-10 11:59N 53°28' W 003°02'0 0.0
2018-Feb-10 11:29N 53°28' W 003°02'0 0.0
2018-Feb-10 10:59N 53°28' W 003°02'0 0.0
2018-Feb-10 10:29N 53°28' W 003°02'0 0.0
2018-Feb-10 09:59N 53°28' W 003°02'0 0.0
2018-Feb-10 09:26N 53°28' W 003°02'0 0.0
2018-Feb-10 08:56N 53°28' W 003°02'0 0.0
2018-Feb-10 08:23N 53°28' W 003°02'0 0.0
2018-Feb-10 07:59N 53°28' W 003°02'0 0.0
2018-Feb-10 07:26N 53°28' W 003°02'0 0.0
2018-Feb-10 06:59N 53°28' W 003°02'0 0.0
2018-Feb-10 06:29N 53°28' W 003°02'0 0.0
2018-Feb-10 06:00N 53°28' W 003°02'1 1.4
2018-Feb-10 05:31N 53°27' W 003°01'0 0.4
2018-Feb-10 04:59N 53°27' W 003°01'2 4.4
2018-Feb-10 04:30N 53°28' W 003°04'4 7.7
2018-Feb-10 04:00N 53°31' W 003°07'712.9
2018-Feb-10 03:30N 53°31' W 003°18'3 6.1
2018-Feb-10 03:00N 53°31' W 003°23'4 8.3
2018-Feb-10 02:30N 53°31' W 003°30'611.0
2018-Feb-10 02:00N 53°31' W 003°40'611.3
2018-Feb-10 01:30N 53°31' W 003°49'3 1.4
2018-Feb-09 23:09N 53°28' W 003°53'0 0.9
2018-Feb-09 23:01N 53°28' W 003°53'0 0.5
2018-Feb-09 22:46N 53°28' W 003°53'  

Dump ship's entire track history